5T9

Maverick County Memorial International Airport

Eagle Pass, Texas, USA
METAR K5T9 181155Z AUTO 32007G13KT 8SM OVC006 07/05 A3031 RMK A01
Observed Flight Rules
Oct-18 @ 11:55 UTC (22 minutes ago) Instrument Flight Rules
Wind Visibility Clouds
320° at 7 knots
 Gusting to 13 knots
8 miles
  • Overcast at 600' AGL
Temperatures Readings
Current 7°C / 45°F
Dewpoint 5°C / 41°F
Humidity 87%
Altimeter 30.31" Hg
Pressure 1026 hPa
Elevation 270
METAR K5T9 181155Z AUTO 32007G13KT 8SM OVC006 07/05 A3031 RMK A01
Observed Flight Rules
Oct-18 @ 11:55 UTC
(22 minutes ago)
IFR
Wind Visibility
320° at 7 knots
 Gusting to 13 knots
8 miles
Clouds
  • Overcast at 600' AGL
Temperature Dewpoint
7°C / 45°F 5°C / 41°F
Humidity Altimeter Pressure
87% 30.31" Hg 1026 hPa